Time;durP1;ratioP1;P1;durP2;ratioP2;P2;SDS_P1;SDS_P2;PMS_P1;PMS_P2;Temp;Humidity;BMP_temperature;BMP_pressure;BME280_temperature;BME280_humidity;BME280_pressure;Samples;Min_cycle;Max_cycle;Signal;HPM_P1;HPM_P2
2023/12/06 00:02:03;;;;;;;;;18.50;17.50;;;;;8.51;72.29;100786.69;4954012;28;51887;-69
2023/12/06 00:04:30;;;;;;;;;15.25;13.75;;;;;8.50;72.57;100793.66;4940970;28;45232;-68
2023/12/06 00:06:55;;;;;;;;;19.25;16.00;;;;;8.51;72.25;100789.28;4942173;28;47129;-67
2023/12/06 00:09:21;;;;;;;;;17.00;13.50;;;;;8.48;72.37;100795.44;4938546;28;45335;-68
2023/12/06 00:11:46;;;;;;;;;19.00;15.75;;;;;8.47;72.31;100801.53;4935716;28;45271;-68
2023/12/06 00:14:11;;;;;;;;;13.00;13.00;;;;;8.45;72.36;100799.84;4938867;28;73136;-68
2023/12/06 00:16:40;;;;;;;;;18.50;16.00;;;;;8.43;72.41;100804.19;4946398;28;57350;-70
2023/12/06 00:19:06;;;;;;;;;14.25;11.00;;;;;8.39;72.38;100805.13;4941295;28;45491;-68
2023/12/06 00:21:31;;;;;;;;;17.75;15.00;;;;;8.32;72.58;100805.22;4939772;28;45568;-68
2023/12/06 00:23:56;;;;;;;;;15.50;15.25;;;;;8.32;72.56;100802.63;4937662;28;49593;-66
2023/12/06 00:26:22;;;;;;;;;16.50;13.50;;;;;8.34;72.59;100808.66;4937185;28;75811;-66
2023/12/06 00:28:47;;;;;;;;;14.75;12.75;;;;;8.37;72.71;100812.97;4942638;28;45295;-66
2023/12/06 00:31:13;;;;;;;;;19.00;13.50;;;;;8.41;72.73;100809.44;4941158;28;45604;-67
2023/12/06 00:33:38;;;;;;;;;16.25;13.00;;;;;8.43;72.72;100809.41;4943566;28;45263;-67
2023/12/06 00:36:04;;;;;;;;;13.00;12.25;;;;;8.46;72.57;100818.03;4942333;28;74393;-66
2023/12/06 00:38:29;;;;;;;;;12.75;11.50;;;;;8.46;72.53;100806.75;4941168;28;48530;-66
2023/12/06 00:40:54;;;;;;;;;20.50;11.75;;;;;8.43;72.46;100809.41;4941920;28;69449;-67
2023/12/06 00:43:20;;;;;;;;;14.50;11.50;;;;;8.44;72.35;100817.22;4943760;28;50846;-67
2023/12/06 00:45:45;;;;;;;;;17.25;12.00;;;;;8.45;72.47;100816.34;4942559;28;75437;-67
2023/12/06 00:48:10;;;;;;;;;16.25;13.00;;;;;8.47;72.38;100821.53;4958911;28;58599;-67
2023/12/06 00:50:35;;;;;;;;;13.25;11.00;;;;;8.46;72.48;100817.19;4922895;28;45366;-67
2023/12/06 00:53:01;;;;;;;;;13.25;11.00;;;;;8.47;72.30;100826.75;4942567;28;71779;-67
2023/12/06 00:55:26;;;;;;;;;13.25;11.75;;;;;8.42;71.92;100832.03;4940784;28;62182;-67
2023/12/06 00:57:51;;;;;;;;;15.00;11.00;;;;;8.38;72.12;100819.91;4942196;28;65792;-67
2023/12/06 01:00:17;;;;;;;;;13.00;11.00;;;;;8.37;72.20;100828.59;4942018;28;45334;-67
2023/12/06 01:02:42;;;;;;;;;11.00;9.00;;;;;8.34;72.14;100831.28;4941702;28;45491;-67
2023/12/06 01:05:08;;;;;;;;;13.75;11.00;;;;;8.32;72.42;100838.25;4941057;28;49008;-67
2023/12/06 01:07:33;;;;;;;;;13.50;12.00;;;;;8.31;72.21;100842.59;4941050;28;45372;-66
2023/12/06 01:09:58;;;;;;;;;7.50;7.50;;;;;8.31;72.13;100837.41;4923850;28;62066;-66
2023/12/06 01:12:24;;;;;;;;;12.75;10.00;;;;;8.29;72.33;100839.16;4940129;28;71469;-66
2023/12/06 01:14:49;;;;;;;;;19.25;11.00;;;;;8.33;72.23;100845.19;4924206;28;47549;-67
2023/12/06 01:17:15;;;;;;;;;14.00;11.50;;;;;8.38;72.50;100845.13;4939965;28;73367;-67
2023/12/06 01:19:40;;;;;;;;;14.75;10.75;;;;;8.40;72.35;100844.22;4942233;28;68068;-68
2023/12/06 01:22:06;;;;;;;;;15.00;12.00;;;;;8.42;72.39;100847.69;4940702;28;45486;-67
2023/12/06 01:24:32;;;;;;;;;12.75;11.00;;;;;8.42;72.08;100842.47;4941035;28;51620;-67
2023/12/06 01:26:57;;;;;;;;;14.50;11.50;;;;;8.43;72.23;100840.72;4943689;28;46973;-67
2023/12/06 01:29:22;;;;;;;;;14.75;10.00;;;;;8.44;72.14;100845.91;4942732;28;53319;-67
2023/12/06 01:31:48;;;;;;;;;16.25;11.50;;;;;8.43;72.05;100851.13;4940168;28;72066;-66
2023/12/06 01:34:13;;;;;;;;;13.00;9.50;;;;;8.39;72.07;100846.84;4928589;28;75513;-66
2023/12/06 01:36:39;;;;;;;;;10.25;9.75;;;;;8.34;72.16;100862.56;4941260;28;49616;-67
2023/12/06 01:39:04;;;;;;;;;13.50;10.50;;;;;8.31;71.87;100862.63;4938895;28;45452;-67
2023/12/06 01:41:29;;;;;;;;;14.25;10.00;;;;;8.23;72.10;100860.09;4940273;28;45503;-67
2023/12/06 01:43:55;;;;;;;;;14.25;9.50;;;;;8.14;72.22;100858.53;4941877;28;73348;-67
2023/12/06 01:46:20;;;;;;;;;15.00;9.00;;;;;8.10;72.33;100866.41;4941654;28;72509;-67
2023/12/06 01:48:47;;;;;;;;;18.00;11.50;;;;;8.02;72.43;100865.66;4942471;28;68145;-67
2023/12/06 01:51:13;;;;;;;;;11.75;10.25;;;;;7.97;72.22;100861.38;4944940;28;45480;-67
2023/12/06 01:53:39;;;;;;;;;12.50;9.50;;;;;7.91;72.36;100866.66;4941840;28;46173;-67
2023/12/06 01:56:05;;;;;;;;;9.75;7.75;;;;;7.87;72.67;100880.63;4922980;28;45740;-67
2023/12/06 01:58:31;;;;;;;;;10.00;9.75;;;;;7.80;72.77;100872.00;4943402;28;48127;-68
2023/12/06 02:00:56;;;;;;;;;14.50;11.50;;;;;7.75;73.09;100876.41;4940965;28;71167;-67
2023/12/06 02:03:22;;;;;;;;;10.00;8.50;;;;;7.73;72.98;100888.59;4942727;28;74450;-67
2023/12/06 02:05:48;;;;;;;;;11.25;9.75;;;;;7.73;73.14;100893.81;4941450;28;45286;-67
2023/12/06 02:08:13;;;;;;;;;14.25;13.00;;;;;7.76;73.29;100893.78;4942991;28;45350;-67
2023/12/06 02:10:39;;;;;;;;;12.75;9.00;;;;;7.79;73.35;100892.88;4940575;28;73162;-67
2023/12/06 02:13:04;;;;;;;;;15.00;11.50;;;;;7.84;73.34;100896.28;4940249;28;75840;-67
2023/12/06 02:15:30;;;;;;;;;13.25;9.50;;;;;7.87;73.82;100906.66;4940429;28;73170;-66
2023/12/06 02:17:55;;;;;;;;;15.00;10.00;;;;;7.93;73.22;100905.72;4943626;28;68860;-67
2023/12/06 02:20:21;;;;;;;;;12.75;10.25;;;;;7.95;73.39;100902.22;4940222;28;64038;-67
2023/12/06 02:22:48;;;;;;;;;13.50;10.25;;;;;7.95;73.33;100912.66;4941250;28;52393;-68
2023/12/06 02:25:17;;;;;;;;;14.50;9.50;;;;;7.95;73.26;100915.25;4943742;28;49109;-69
2023/12/06 02:27:43;;;;;;;;;9.50;8.75;;;;;7.94;73.02;100910.91;4945094;28;69957;-69
2023/12/06 02:30:10;;;;;;;;;17.50;11.75;;;;;7.90;73.29;100906.63;4940814;28;45398;-69
2023/12/06 02:32:36;;;;;;;;;12.00;9.50;;;;;7.93;73.15;100910.94;4923785;28;46754;-68
2023/12/06 02:35:02;;;;;;;;;7.00;7.00;;;;;7.92;72.88;100912.69;4943570;28;45715;-69
2023/12/06 02:37:28;;;;;;;;;14.50;13.25;;;;;7.93;72.95;100911.81;4938137;28;45406;-69
2023/12/06 02:39:54;;;;;;;;;13.50;11.25;;;;;7.94;73.03;100910.06;4946823;28;45508;-69
2023/12/06 02:42:19;;;;;;;;;11.25;8.50;;;;;7.94;73.21;100921.34;4943507;28;75609;-69
2023/12/06 02:44:45;;;;;;;;;17.00;11.25;;;;;7.94;72.81;100910.91;4939508;28;71951;-69
2023/12/06 02:47:10;;;;;;;;;13.00;11.25;;;;;7.94;72.75;100923.09;4940613;28;53733;-69
2023/12/06 02:49:36;;;;;;;;;16.50;14.75;;;;;7.90;72.67;100919.66;4940972;28;45579;-68
2023/12/06 02:52:02;;;;;;;;;22.75;14.25;;;;;7.86;72.79;100923.19;4942546;28;72120;-68
2023/12/06 02:54:27;;;;;;;;;15.75;10.75;;;;;7.80;72.80;100918.91;4924101;28;46722;-68
2023/12/06 02:56:52;;;;;;;;;16.75;14.00;;;;;7.81;72.83;100925.00;4953698;28;45322;-69
2023/12/06 02:59:18;;;;;;;;;15.50;10.00;;;;;7.75;72.89;100919.84;4938775;28;73135;-69
2023/12/06 03:01:47;;;;;;;;;10.75;9.75;;;;;7.69;73.11;100926.00;4939820;28;66104;-68
2023/12/06 03:04:12;;;;;;;;;14.25;11.00;;;;;7.68;72.89;100934.69;4941819;28;46063;-69
2023/12/06 03:06:38;;;;;;;;;12.75;8.75;;;;;7.67;73.11;100937.34;4943501;28;69554;-69
2023/12/06 03:09:04;;;;;;;;;17.00;12.00;;;;;7.68;73.20;100941.66;4955116;28;62932;-69
2023/12/06 03:11:29;;;;;;;;;16.50;11.75;;;;;7.70;73.04;100943.38;4944507;28;46389;-70
2023/12/06 03:13:55;;;;;;;;;20.00;11.50;;;;;7.71;73.04;100936.41;4959125;28;69549;-69
2023/12/06 03:16:20;;;;;;;;;16.50;10.75;;;;;7.73;73.17;100942.47;4946048;28;66899;-70
2023/12/06 03:18:45;;;;;;;;;11.00;10.25;;;;;7.71;73.03;100944.22;4943739;28;72887;-69
2023/12/06 03:21:11;;;;;;;;;16.75;14.25;;;;;7.71;73.14;100944.22;4952993;28;45462;-69
2023/12/06 03:23:36;;;;;;;;;16.75;11.25;;;;;7.71;72.90;100936.41;4958519;28;45451;-70
2023/12/06 03:26:02;;;;;;;;;14.50;10.75;;;;;7.72;73.19;100933.78;4953886;28;69341;-69
2023/12/06 03:28:27;;;;;;;;;14.00;10.75;;;;;7.73;73.02;100932.88;4948714;28;45338;-70
2023/12/06 03:30:53;;;;;;;;;19.50;15.25;;;;;7.72;72.96;100925.97;4944914;28;74238;-70
2023/12/06 03:33:18;;;;;;;;;15.00;13.50;;;;;7.67;73.15;100911.28;4939989;28;73129;-69
2023/12/06 03:35:43;;;;;;;;;16.25;11.50;;;;;7.68;72.86;100913.84;4938639;28;69421;-69
2023/12/06 03:38:10;;;;;;;;;17.25;14.75;;;;;7.62;72.80;100907.88;4938368;28;69838;-69
2023/12/06 03:40:35;;;;;;;;;21.75;14.75;;;;;7.65;73.00;100920.84;4957590;28;47443;-69
2023/12/06 03:43:00;;;;;;;;;15.25;11.25;;;;;7.64;73.09;100913.91;4943906;28;48000;-70
2023/12/06 03:45:26;;;;;;;;;19.00;15.00;;;;;7.63;73.15;100920.00;4937799;28;69345;-70
2023/12/06 03:47:51;;;;;;;;;18.25;13.00;;;;;7.59;72.75;100920.03;4945029;28;73045;-70
2023/12/06 03:50:16;;;;;;;;;19.00;13.00;;;;;7.53;72.68;100909.69;4944062;28;74567;-70
2023/12/06 03:52:42;;;;;;;;;24.00;14.75;;;;;7.49;73.09;100909.72;4923745;28;72635;-70
2023/12/06 03:55:07;;;;;;;;;14.50;12.25;;;;;7.46;72.96;100908.03;4951013;28;67310;-69
2023/12/06 03:57:32;;;;;;;;;15.00;11.00;;;;;7.46;73.07;100909.78;4941143;28;48750;-70
2023/12/06 03:59:58;;;;;;;;;14.25;11.25;;;;;7.41;73.26;100908.06;4946700;28;45509;-70
2023/12/06 04:02:23;;;;;;;;;14.50;11.75;;;;;7.40;73.01;100910.69;4938356;28;73374;-70
2023/12/06 04:04:48;;;;;;;;;20.00;14.50;;;;;7.35;73.32;100905.56;4940238;28;69400;-69
2023/12/06 04:07:14;;;;;;;;;17.50;13.25;;;;;7.34;73.10;100906.44;4940014;28;70846;-68
2023/12/06 04:09:39;;;;;;;;;13.25;11.00;;;;;7.34;73.29;100905.56;4939477;28;75472;-70
2023/12/06 04:12:05;;;;;;;;;14.50;12.75;;;;;7.34;73.33;100910.78;4941205;28;45500;-68
2023/12/06 04:14:31;;;;;;;;;16.00;13.50;;;;;7.37;73.40;100915.97;4946755;28;45395;-69
2023/12/06 04:16:56;;;;;;;;;22.75;14.75;;;;;7.39;73.31;100919.41;4945520;28;45433;-69
2023/12/06 04:19:22;;;;;;;;;15.25;11.50;;;;;7.39;73.38;100917.66;4949931;28;75350;-69
2023/12/06 04:21:47;;;;;;;;;12.00;11.25;;;;;7.42;73.35;100921.97;4939123;28;73043;-69
2023/12/06 04:24:12;;;;;;;;;13.50;10.50;;;;;7.43;73.17;100918.47;4938793;28;66355;-69
2023/12/06 04:26:38;;;;;;;;;15.25;9.75;;;;;7.46;73.23;100922.81;4939428;28;45473;-70
2023/12/06 04:29:03;;;;;;;;;17.25;11.00;;;;;7.49;73.23;100927.97;4937231;28;55569;-68
2023/12/06 04:31:28;;;;;;;;;15.25;13.25;;;;;7.50;72.97;100924.50;4936619;28;58812;-69
2023/12/06 04:33:54;;;;;;;;;15.25;11.50;;;;;7.50;72.84;100927.94;4938843;28;64328;-69
2023/12/06 04:36:19;;;;;;;;;16.25;12.75;;;;;7.44;73.02;100925.44;4938811;28;55670;-69
2023/12/06 04:38:45;;;;;;;;;17.75;14.00;;;;;7.44;73.03;100934.97;4939143;28;46445;-69
2023/12/06 04:41:10;;;;;;;;;15.25;12.00;;;;;7.43;72.77;100941.06;4939081;28;45375;-69
2023/12/06 04:43:35;;;;;;;;;12.25;9.00;;;;;7.43;73.44;100941.06;4940503;28;45622;-69
2023/12/06 04:46:01;;;;;;;;;10.75;10.25;;;;;7.44;73.09;100933.25;4943145;28;45568;-69
2023/12/06 04:48:27;;;;;;;;;11.00;10.25;;;;;7.44;72.99;100942.78;4942627;28;74574;-69
2023/12/06 04:50:52;;;;;;;;;12.50;9.50;;;;;7.43;73.00;100941.91;4940269;28;45775;-69
2023/12/06 04:53:18;;;;;;;;;16.25;12.00;;;;;7.40;72.98;100934.13;4938763;28;68129;-68
2023/12/06 04:55:43;;;;;;;;;16.00;9.75;;;;;7.39;72.96;100946.28;4941834;28;49546;-68
2023/12/06 04:58:08;;;;;;;;;13.00;10.50;;;;;7.33;73.06;100941.16;4941404;28;71106;-69
2023/12/06 05:00:34;;;;;;;;;16.50;15.25;;;;;7.31;73.06;100942.03;4940858;28;45278;-69
2023/12/06 05:02:59;;;;;;;;;21.75;14.25;;;;;7.29;73.03;100949.00;4941066;28;69597;-69
2023/12/06 05:05:24;;;;;;;;;16.25;13.25;;;;;7.23;73.33;100963.81;4935317;28;45619;-68
2023/12/06 05:07:50;;;;;;;;;15.75;10.25;;;;;7.18;73.16;100962.13;4939403;28;45431;-68
2023/12/06 05:10:15;;;;;;;;;15.75;11.25;;;;;7.18;73.36;100969.94;4923021;28;45404;-69
2023/12/06 05:12:40;;;;;;;;;10.50;10.00;;;;;7.14;73.19;100970.84;4938558;28;65952;-69
2023/12/06 05:15:06;;;;;;;;;9.25;9.25;;;;;7.12;73.32;100980.38;4942283;28;72113;-69
2023/12/06 05:17:31;;;;;;;;;10.00;8.25;;;;;7.09;73.40;100981.28;4944816;28;45432;-69
2023/12/06 05:19:57;;;;;;;;;18.25;10.25;;;;;7.07;73.38;100975.25;4944032;28;45316;-69
2023/12/06 05:22:22;;;;;;;;;3.00;2.00;;;;;7.04;73.59;100970.91;4942692;28;68190;-69
2023/12/06 05:24:47;;;;;;;;;13.50;8.50;;;;;7.02;73.55;100983.06;4940574;28;73527;-69
2023/12/06 05:27:13;;;;;;;;;6.75;6.75;;;;;6.99;73.82;100975.31;4942849;28;74599;-69
2023/12/06 05:29:38;;;;;;;;;11.50;8.50;;;;;6.98;73.51;100988.34;4942505;28;73164;-70
2023/12/06 05:32:04;;;;;;;;;10.50;8.25;;;;;6.94;73.96;100984.91;4943177;28;45425;-69
2023/12/06 05:34:29;;;;;;;;;17.25;9.25;;;;;6.95;73.74;100991.81;4943621;28;45316;-69
2023/12/06 05:36:55;;;;;;;;;15.00;11.50;;;;;6.99;73.93;100995.25;4942741;28;47123;-69
2023/12/06 05:39:20;;;;;;;;;9.00;8.00;;;;;7.02;73.89;100997.84;4942882;28;49596;-69
2023/12/06 05:41:45;;;;;;;;;14.00;8.50;;;;;7.07;73.87;101001.28;4942817;28;52130;-69
2023/12/06 05:44:11;;;;;;;;;13.50;8.00;;;;;7.09;73.85;101002.09;4941166;28;72906;-69
2023/12/06 05:46:36;;;;;;;;;12.75;9.00;;;;;7.10;73.71;101000.38;4943645;28;47049;-69
2023/12/06 05:49:02;;;;;;;;;13.00;8.00;;;;;7.10;73.57;100997.75;4970451;28;45449;-69
2023/12/06 05:51:27;;;;;;;;;16.25;11.50;;;;;7.06;73.46;100991.72;4944261;28;45259;-70
2023/12/06 05:53:53;;;;;;;;;10.00;8.75;;;;;7.04;73.53;100999.53;4943090;28;49157;-70
2023/12/06 05:56:18;;;;;;;;;10.00;9.00;;;;;7.02;73.50;100997.84;4943756;28;59031;-70
2023/12/06 05:58:43;;;;;;;;;14.50;9.00;;;;;7.03;73.59;101005.63;4943065;28;74603;-70
2023/12/06 06:01:09;;;;;;;;;13.75;9.75;;;;;7.04;73.52;100999.53;4942401;28;66528;-70
2023/12/06 06:03:34;;;;;;;;;15.25;9.25;;;;;7.10;73.39;101015.97;4940743;28;73271;-70
2023/12/06 06:06:06;;;;;;;;;9.50;4.25;;;;;7.14;73.57;101020.31;4942530;28;46488;-69
2023/12/06 06:08:33;;;;;;;;;19.75;14.75;;;;;7.17;73.47;101017.66;4948791;28;45342;-69
2023/12/06 06:10:58;;;;;;;;;23.50;22.00;;;;;7.21;73.31;101019.38;4943313;28;45370;-69
2023/12/06 06:13:28;;;;;;;;;34.50;26.50;;;;;7.25;73.39;101018.47;4942217;28;45295;-69
2023/12/06 06:15:54;;;;;;;;;52.50;39.00;;;;;7.29;73.21;101020.16;4942030;28;48411;-69
2023/12/06 06:18:19;;;;;;;;;54.00;38.75;;;;;7.26;73.14;101012.38;4941906;28;45267;-69
2023/12/06 06:20:44;;;;;;;;;40.75;34.75;;;;;7.30;73.03;101019.28;4942937;28;45474;-69
2023/12/06 06:23:11;;;;;;;;;34.75;23.25;;;;;7.33;73.02;101028.78;4941297;28;73123;-69
2023/12/06 06:25:36;;;;;;;;;23.50;16.75;;;;;7.32;73.17;101025.34;4940632;28;46270;-69
2023/12/06 06:28:02;;;;;;;;;17.50;11.25;;;;;7.36;72.93;101032.22;4941365;28;45314;-70
2023/12/06 06:30:27;;;;;;;;;13.75;10.00;;;;;7.35;72.76;101032.28;4941066;28;45270;-69
2023/12/06 06:32:53;;;;;;;;;11.25;8.25;;;;;7.30;72.67;101034.06;4950399;28;45756;-69
2023/12/06 06:35:18;;;;;;;;;13.50;8.00;;;;;7.25;72.71;101030.63;4941560;28;46002;-69
2023/12/06 06:37:43;;;;;;;;;14.00;8.25;;;;;7.19;72.91;101039.34;4940764;28;49895;-69
2023/12/06 06:40:10;;;;;;;;;11.75;9.00;;;;;7.13;72.66;101042.84;4941402;28;59502;-69
2023/12/06 06:42:35;;;;;;;;;13.25;9.75;;;;;7.01;72.73;101041.22;4941009;28;45425;-69
2023/12/06 06:45:02;;;;;;;;;10.25;9.00;;;;;6.98;73.03;101053.38;4943004;28;46250;-69
2023/12/06 06:47:27;;;;;;;;;14.00;12.50;;;;;6.95;73.25;101058.59;4940804;28;45420;-68
2023/12/06 06:49:53;;;;;;;;;12.75;8.00;;;;;6.88;73.12;101056.91;4942180;28;45582;-68
2023/12/06 06:52:19;;;;;;;;;10.00;8.00;;;;;6.83;73.25;101062.13;4941652;28;45413;-69
2023/12/06 06:54:44;;;;;;;;;11.25;9.75;;;;;6.82;73.56;101063.03;4941424;28;71448;-69
2023/12/06 06:57:09;;;;;;;;;18.25;10.00;;;;;6.79;73.50;101058.69;4941895;28;67239;-69
2023/12/06 06:59:35;;;;;;;;;11.25;8.00;;;;;6.79;73.66;101074.31;4941662;28;45522;-69
2023/12/06 07:02:02;;;;;;;;;15.25;9.75;;;;;6.79;73.82;101069.09;4939909;28;45239;-69
2023/12/06 07:04:27;;;;;;;;;9.75;7.50;;;;;6.80;73.78;101064.78;4941032;28;47692;-69
2023/12/06 07:06:53;;;;;;;;;13.50;9.00;;;;;6.80;73.72;101070.84;4940740;28;45239;-65
2023/12/06 07:09:18;;;;;;;;;9.25;8.25;;;;;6.80;73.78;101077.78;4940707;28;45274;-67
2023/12/06 07:11:43;;;;;;;;;18.75;9.75;;;;;6.80;73.99;101078.66;4940264;28;71872;-69
2023/12/06 07:14:09;;;;;;;;;15.00;8.50;;;;;6.78;73.93;101082.09;4941500;28;57012;-66
2023/12/06 07:16:34;;;;;;;;;10.00;9.25;;;;;6.78;74.05;101087.31;4937856;28;45575;-67
2023/12/06 07:19:00;;;;;;;;;16.00;12.25;;;;;6.76;73.95;101084.72;4939460;28;69052;-67
2023/12/06 07:21:26;;;;;;;;;13.75;9.75;;;;;6.77;73.66;101101.22;4940642;28;45368;-67
2023/12/06 07:23:51;;;;;;;;;10.50;9.25;;;;;6.75;74.07;101100.34;4948669;28;45354;-69
2023/12/06 07:26:18;;;;;;;;;13.00;10.00;;;;;6.77;74.07;101106.41;4940777;28;73355;-69
2023/12/06 07:28:44;;;;;;;;;17.25;12.75;;;;;6.75;74.05;101110.75;4923983;28;45377;-69
2023/12/06 07:31:09;;;;;;;;;11.75;8.75;;;;;6.72;73.87;101114.22;4941468;28;45587;-68
2023/12/06 07:33:35;;;;;;;;;17.75;10.00;;;;;6.72;73.99;101116.81;4962501;28;73900;-68
2023/12/06 07:36:00;;;;;;;;;17.25;10.75;;;;;6.73;74.24;101126.38;4938718;28;45390;-65
2023/12/06 07:38:27;;;;;;;;;13.75;10.00;;;;;6.74;73.98;101122.88;4945194;28;45318;-67
2023/12/06 07:40:52;;;;;;;;;13.50;10.50;;;;;6.74;74.21;101122.03;4924244;28;45420;-67
2023/12/06 07:43:18;;;;;;;;;10.00;10.00;;;;;6.75;74.17;101121.16;4926306;28;47021;-68
2023/12/06 07:45:44;;;;;;;;;15.50;10.00;;;;;6.75;74.49;101115.97;4938897;28;73233;-67
2023/12/06 07:48:09;;;;;;;;;14.00;9.75;;;;;6.76;74.35;101121.13;4922167;28;45533;-68
2023/12/06 07:50:35;;;;;;;;;14.25;10.75;;;;;6.77;74.35;101117.66;4941453;28;45473;-67
2023/12/06 07:53:00;;;;;;;;;11.50;8.00;;;;;6.77;74.33;101122.88;4952259;28;69115;-68
2023/12/06 07:55:26;;;;;;;;;15.25;10.00;;;;;6.79;74.22;101121.13;4949886;28;45423;-68
2023/12/06 07:57:51;;;;;;;;;14.50;10.25;;;;;6.77;74.24;101117.66;4941784;28;45333;-68
2023/12/06 08:00:19;;;;;;;;;12.75;9.50;;;;;6.76;74.32;101123.72;4941899;28;45533;-68
2023/12/06 08:02:45;;;;;;;;;15.00;9.00;;;;;6.77;74.25;101130.69;4942081;28;46555;-68
2023/12/06 08:05:10;;;;;;;;;22.50;11.00;;;;;6.80;74.01;101140.22;4922647;28;72598;-69
2023/12/06 08:07:36;;;;;;;;;19.25;10.00;;;;;6.78;74.38;101137.63;4947321;28;45426;-68
2023/12/06 08:10:13;;;;;;;;;12.00;9.75;;;;;6.78;74.24;101140.22;4934043;28;45565;-68
2023/12/06 08:12:39;;;;;;;;;22.75;14.75;;;;;6.77;74.13;101140.22;4938954;28;45314;-69
2023/12/06 08:15:05;;;;;;;;;13.75;9.00;;;;;6.75;74.04;101141.97;4938813;28;73181;-69
2023/12/06 08:17:30;;;;;;;;;12.00;9.00;;;;;6.74;74.19;101138.47;4939749;28;45311;-69
2023/12/06 08:19:56;;;;;;;;;12.25;8.00;;;;;6.71;74.29;101137.63;4952261;28;72027;-69
2023/12/06 08:22:21;;;;;;;;;15.00;11.25;;;;;6.73;74.38;101148.88;4933752;28;75474;-68
2023/12/06 08:24:46;;;;;;;;;18.50;10.75;;;;;6.72;74.36;101161.03;4937185;28;45335;-69
2023/12/06 08:27:12;;;;;;;;;13.00;10.50;;;;;6.69;74.37;101155.84;4945121;28;45275;-68
2023/12/06 08:29:38;;;;;;;;;17.25;12.00;;;;;6.69;74.65;101158.44;4956143;28;64914;-68
2023/12/06 08:32:04;;;;;;;;;13.25;10.00;;;;;6.73;74.81;101157.59;4946138;28;45361;-68
2023/12/06 08:34:29;;;;;;;;;22.25;15.00;;;;;6.75;75.31;101168.84;4940592;28;45371;-69
2023/12/06 08:36:54;;;;;;;;;19.25;14.75;;;;;6.76;74.89;101164.50;4940363;28;66719;-68
2023/12/06 08:39:20;;;;;;;;;18.75;13.25;;;;;6.79;75.01;101164.50;4939547;28;45285;-69
2023/12/06 08:41:46;;;;;;;;;12.25;8.75;;;;;6.83;75.18;101166.19;4922102;28;47110;-69
2023/12/06 08:44:11;;;;;;;;;17.75;13.75;;;;;6.86;74.83;101160.13;4955757;28;45280;-69
2023/12/06 08:46:37;;;;;;;;;14.50;11.25;;;;;6.90;74.77;101169.63;4940621;28;69201;-68
2023/12/06 08:49:03;;;;;;;;;14.75;12.00;;;;;6.92;74.49;101163.53;4925630;28;70878;-69
2023/12/06 08:51:28;;;;;;;;;13.25;11.50;;;;;6.95;74.59;101163.53;4944754;28;46228;-67
2023/12/06 08:53:53;;;;;;;;;17.50;11.00;;;;;6.98;74.53;101171.31;4942524;28;73474;-68
2023/12/06 08:56:19;;;;;;;;;16.75;10.75;;;;;7.01;74.24;101179.13;4937338;28;51173;-68
2023/12/06 08:58:44;;;;;;;;;12.00;10.25;;;;;6.99;74.46;101173.06;4945242;28;71891;-69
2023/12/06 09:01:09;;;;;;;;;16.25;11.25;;;;;6.99;74.18;101175.69;4943728;28;57473;-68
2023/12/06 09:03:35;;;;;;;;;15.50;10.25;;;;;6.99;74.27;101169.59;4943853;28;47647;-69
2023/12/06 09:06:00;;;;;;;;;20.00;13.00;;;;;6.97;73.87;101171.34;4941931;28;69349;-67
2023/12/06 09:08:25;;;;;;;;;16.75;12.50;;;;;6.96;73.97;101167.03;4943950;28;45394;-68
2023/12/06 09:10:52;;;;;;;;;19.25;14.75;;;;;6.96;74.19;101172.22;4945949;28;45471;-68
2023/12/06 09:13:18;;;;;;;;;17.75;14.00;;;;;6.96;74.16;101167.03;4942755;28;45835;-68
2023/12/06 09:15:43;;;;;;;;;20.25;15.00;;;;;7.00;74.28;101169.56;4942244;28;45369;-68
2023/12/06 09:18:08;;;;;;;;;17.50;13.00;;;;;7.01;74.12;101170.44;4943570;28;45466;-69
2023/12/06 09:20:34;;;;;;;;;14.25;12.75;;;;;7.02;74.09;101173.03;4942059;28;45481;-67
2023/12/06 09:22:59;;;;;;;;;15.75;11.50;;;;;7.03;74.07;101172.19;4946538;28;73234;-68
2023/12/06 09:25:24;;;;;;;;;13.75;13.00;;;;;7.03;73.78;101171.31;4941331;28;68108;-68
2023/12/06 09:27:52;;;;;;;;;12.75;9.00;;;;;7.03;74.05;101171.31;4957462;28;45606;-68
2023/12/06 09:30:18;;;;;;;;;20.75;16.75;;;;;7.07;74.45;101182.56;4926441;28;47114;-68
2023/12/06 09:32:43;;;;;;;;;26.00;16.00;;;;;7.10;74.28;101182.53;4941010;28;55255;-68
2023/12/06 09:35:08;;;;;;;;;20.00;18.25;;;;;7.13;74.35;101178.19;4942377;28;45326;-68
2023/12/06 09:37:34;;;;;;;;;22.75;16.25;;;;;7.19;74.11;101179.91;4942571;28;45618;-68
2023/12/06 09:40:00;;;;;;;;;21.00;14.50;;;;;7.26;73.87;101180.72;4943093;28;46501;-68
2023/12/06 09:42:28;;;;;;;;;22.00;15.75;;;;;7.29;73.69;101184.16;4950216;28;50946;-68
2023/12/06 09:44:55;;;;;;;;;26.25;17.00;;;;;7.31;73.61;101174.63;4942200;28;45370;-68
2023/12/06 09:47:23;;;;;;;;;21.75;17.00;;;;;7.31;73.45;101181.56;4941791;28;45418;-68
2023/12/06 09:49:48;;;;;;;;;23.25;19.50;;;;;7.32;73.35;101188.50;4941655;28;46599;-69
2023/12/06 09:52:23;;;;;;;;;17.50;15.50;;;;;7.37;73.47;101189.34;4942013;28;45314;-69
2023/12/06 09:54:50;;;;;;;;;19.75;16.75;;;;;7.40;73.27;101197.09;4942689;28;45369;-68
2023/12/06 09:57:15;;;;;;;;;20.50;16.00;;;;;7.45;73.02;101197.94;4941036;28;45461;-68
2023/12/06 09:59:40;;;;;;;;;21.50;16.25;;;;;7.49;73.07;101202.28;4925239;28;47556;-68
2023/12/06 10:02:06;;;;;;;;;15.75;15.25;;;;;7.55;72.97;101204.81;4943479;28;72991;-68
2023/12/06 10:04:33;;;;;;;;;20.00;15.50;;;;;7.62;72.77;101199.59;4944431;28;46123;-68
2023/12/06 10:06:59;;;;;;;;;20.00;13.75;;;;;7.68;72.82;101202.97;4942634;28;45596;-68
2023/12/06 10:09:25;;;;;;;;;22.00;16.00;;;;;7.75;72.48;101202.06;4940295;28;45481;-69
2023/12/06 10:11:50;;;;;;;;;22.25;16.50;;;;;7.83;72.70;101203.78;4940983;28;58013;-69
2023/12/06 10:14:19;;;;;;;;;27.00;18.25;;;;;7.86;71.92;101202.00;4941511;28;69082;-69
2023/12/06 10:16:46;;;;;;;;;22.00;18.00;;;;;7.91;72.10;101200.19;4952603;28;45603;-69
2023/12/06 10:19:12;;;;;;;;;23.75;19.25;;;;;7.97;71.94;101202.75;4957150;28;45435;-69
2023/12/06 10:21:39;;;;;;;;;24.75;19.00;;;;;8.01;71.75;101208.81;4940141;28;45453;-69
2023/12/06 10:24:07;;;;;;;;;22.50;16.75;;;;;8.05;71.65;101207.91;4940895;28;45401;-68
2023/12/06 10:26:32;;;;;;;;;23.75;16.00;;;;;8.10;71.24;101205.25;4925362;28;45539;-69
2023/12/06 10:28:58;;;;;;;;;23.25;18.00;;;;;8.16;71.44;101213.91;4946451;28;74688;-69
2023/12/06 10:31:23;;;;;;;;;22.25;18.00;;;;;8.17;70.89;101210.41;4942447;28;45299;-69
2023/12/06 10:33:56;;;;;;;;;23.50;21.25;;;;;8.21;70.92;101210.38;4920801;28;45504;-69
2023/12/06 10:36:25;;;;;;;;;24.25;21.75;;;;;8.21;70.54;101208.63;4936260;28;45602;-69
2023/12/06 10:38:51;;;;;;;;;22.25;17.50;;;;;8.25;70.68;101215.56;4940603;28;49504;-69
2023/12/06 10:41:17;;;;;;;;;22.50;17.75;;;;;8.26;70.21;101209.44;4940775;28;45579;-69
2023/12/06 10:43:43;;;;;;;;;20.75;17.75;;;;;8.24;70.24;101203.38;4937090;28;45347;-69
2023/12/06 10:46:09;;;;;;;;;25.00;18.50;;;;;8.22;70.39;101207.75;4940461;28;54547;-69
2023/12/06 10:48:35;;;;;;;;;23.00;19.00;;;;;8.18;70.04;101200.84;4939761;28;46510;-70
2023/12/06 10:51:02;;;;;;;;;20.50;18.00;;;;;8.17;70.06;101199.13;4957327;28;45345;-69
2023/12/06 10:53:28;;;;;;;;;22.00;17.25;;;;;8.23;70.14;101200.78;4941080;28;45294;-69
2023/12/06 10:55:53;;;;;;;;;26.75;19.25;;;;;8.29;70.37;101206.81;4940325;28;62221;-69
2023/12/06 10:58:21;;;;;;;;;22.00;18.00;;;;;8.35;70.16;101209.34;4943424;28;46730;-69
2023/12/06 11:00:48;;;;;;;;;29.00;19.75;;;;;8.40;69.98;101208.47;4944140;28;70922;-69
2023/12/06 11:03:13;;;;;;;;;19.50;15.00;;;;;8.43;69.81;101209.31;4930425;28;45530;-69
2023/12/06 11:05:52;;;;;;;;;26.50;19.25;;;;;8.48;69.82;101204.03;4940951;28;45547;-69
2023/12/06 11:08:31;;;;;;;;;56.00;36.25;;;;;8.50;69.85;101197.94;4939706;28;45978;-68
2023/12/06 11:11:08;;;;;;;;;48.75;35.50;;;;;8.53;69.49;101197.91;4943404;28;45887;-68
2023/12/06 11:13:59;;;;;;;;;24.75;20.75;;;;;8.58;69.54;101192.63;4942084;28;45513;-68